^^
Station Historical Data
Daily Summary for November 10, 2017 Units:  Metric    English   Both
« Previous Day
Next Day »
Daily Weekly Monthly Yearly Custom
  High: Low: Average:
Temperature: 10.2 °C -4.9 °C 1.1 °C
Dew Point: 8.1 °C -13.6 °C -6.6 °C
Humidity: 93% 39% 58%
Wind Speed: 14.5km/h 0km/h 6km/h
Wind Gust: 37km/h - -
Wind- - SSW
Pressure: 1033.4 hPa 1013.8 hPa -
Precipitation: 0 mm    
Historical Graphs
 
 
Tabular Data for November 10, 2017
Time Temperature Dew Point Pressure Wind Wind Speed Wind Gust Humidity Rainfall Rate (Hourly) Conditions
00:00 10.2 °C 7.8 °C 1014.4 hPa SW 9.7 km/h 22.5 km/h 85% 0 mm RA
00:10 10.1 °C 8 °C 1014.4 hPa WSW 8 km/h 19.3 km/h 87% 0 mm BKN
00:20 9.8 °C 8.1 °C 1014.4 hPa SW 3.2 km/h 16.1 km/h 89% 0 mm BKN
00:30 9.4 °C 8.1 °C 1014.4 hPa SW 1.6 km/h 14.5 km/h 91% 0 mm BKN
00:40 9.2 °C 7.8 °C 1014.4 hPa SW 4.8 km/h 19.3 km/h 91% 0 mm BKN
00:50 9.1 °C 7.9 °C 1014.1 hPa SW 9.7 km/h 17.7 km/h 92% 0 mm BKN
00:59 9 °C 7.7 °C 1014.1 hPa SW 3.2 km/h 16.1 km/h 92% 0 mm BKN
01:10 8.8 °C 7.6 °C 1014.1 hPa SW 3.2 km/h 16.1 km/h 92% 0 mm BKN
01:19 8.7 °C 7.4 °C 1014.1 hPa SW 4.8 km/h 19.3 km/h 92% 0 mm BKN
01:30 8.6 °C 7.4 °C 1013.8 hPa SW 3.2 km/h 14.5 km/h 92% 0 mm BKN
01:40 8.4 °C 7.3 °C 1013.8 hPa SSW 8 km/h 12.9 km/h 93% 0 mm BKN
01:50 8.3 °C 7.2 °C 1013.8 hPa SW 3.2 km/h 16.1 km/h 93% 0 mm BKN
02:00 8.2 °C 6.9 °C 1013.8 hPa SW 4.8 km/h 19.3 km/h 92% 0 mm BKN
02:10 8.1 °C 6.9 °C 1013.8 hPa SSW 4.8 km/h 19.3 km/h 92% 0 mm CLR
02:20 7.9 °C 6.7 °C 1013.8 hPa SSW 4.8 km/h 19.3 km/h 92% 0 mm CLR
02:30 7.8 °C 6.6 °C 1013.8 hPa SW 4.8 km/h 11.3 km/h 92% 0 mm CLR
02:40 7.7 °C 6.5 °C 1013.8 hPa SSW 4.8 km/h 12.9 km/h 92% 0 mm CLR
02:50 7.6 °C 6.3 °C 1013.8 hPa SW 4.8 km/h 9.7 km/h 92% 0 mm CLR
03:00 7.4 °C 6.1 °C 1013.8 hPa SW 3.2 km/h 20.9 km/h 91% 0 mm CLR
03:10 7.3 °C 5.9 °C 1013.8 hPa SW 3.2 km/h 19.3 km/h 91% 0 mm CLR
03:20 7.2 °C 5.8 °C 1013.8 hPa SW 3.2 km/h 16.1 km/h 91% 0 mm CLR
03:30 7.1 °C 5.8 °C 1014.1 hPa SW 3.2 km/h 9.7 km/h 92% 0 mm CLR
03:50 7.1 °C 5.8 °C 1014.4 hPa SW 4.8 km/h 14.5 km/h 92% 0 mm CLR
03:59 6.8 °C 3.9 °C 1015.1 hPa West 9.7 km/h 25.7 km/h 82% 0 mm CLR
04:10 6.5 °C 2.6 °C 1015.1 hPa SSE 3.2 km/h 20.9 km/h 76% 0 mm BKN
04:20 6.3 °C 2.1 °C 1015.5 hPa WSW 8 km/h 19.3 km/h 74% 0 mm BKN
04:30 6.2 °C 1.9 °C 1015.8 hPa ESE 1.6 km/h 16.1 km/h 74% 0 mm BKN
04:39 6 °C 1.7 °C 1015.8 hPa NNW 11.3 km/h 27.4 km/h 74% 0 mm BKN
04:49 5.7 °C 1.4 °C 1016.1 hPa NNW 4.8 km/h 14.5 km/h 74% 0 mm BKN
04:59 5.6 °C 1.3 °C 1016.1 hPa NE 9.7 km/h 20.9 km/h 74% 0 mm BKN
05:10 5.4 °C 0.7 °C 1016.5 hPa NNW 8 km/h 29 km/h 72% 0 mm BKN
05:20 5.2 °C 0.3 °C 1016.5 hPa NE 11.3 km/h 22.5 km/h 71% 0 mm BKN
05:30 4.9 °C -0.1 °C 1016.8 hPa North 9.7 km/h 25.7 km/h 70% 0 mm BKN
05:40 4.7 °C -0.3 °C 1017.2 hPa North 3.2 km/h 32.2 km/h 70% 0 mm BKN
05:50 4.5 °C -0.9 °C 1016.8 hPa NW 4.8 km/h 20.9 km/h 68% 0 mm BKN
06:00 4.3 °C -0.8 °C 1017.2 hPa North 8 km/h 16.1 km/h 69% 0 mm BKN
06:10 4.1 °C -1.5 °C 1017.5 hPa ENE 4.8 km/h 27.4 km/h 67% 0 mm SCT
06:20 3.8 °C -1.3 °C 1017.8 hPa West 8 km/h 37 km/h 69% 0 mm SCT
06:30 3.4 °C -2.8 °C 1018.8 hPa NNE 11.3 km/h 33.8 km/h 64% 0 mm SCT
06:40 2.7 °C -3.8 °C 1019.2 hPa NNW 8 km/h 27.4 km/h 62% 0 mm SCT
06:50 2.2 °C -4.9 °C 1019.5 hPa NNE 4.8 km/h 24.1 km/h 59% 0 mm SCT
07:00 1.9 °C -5.7 °C 1019.9 hPa North 8 km/h 33.8 km/h 57% 0 mm SCT
07:10 1.7 °C -5.9 °C 1019.9 hPa SW 4.8 km/h 16.1 km/h 57% 0 mm SCT
07:19 1.6 °C -6.3 °C 1020.2 hPa North 9.7 km/h 25.7 km/h 56% 0 mm SCT
07:30 1.3 °C -6.9 °C 1020.5 hPa ENE 3.2 km/h 32.2 km/h 54% 0 mm SCT
07:40 1.2 °C -7.6 °C 1020.9 hPa NNE 9.7 km/h 29 km/h 52% 0 mm SCT
07:50 1.1 °C -8.2 °C 1021.2 hPa NNE 11.3 km/h 25.7 km/h 50% 0 mm SCT
07:59 1.2 °C -7.6 °C 1021.2 hPa NNE 3.2 km/h 33.8 km/h 52% 0 mm SCT
08:10 1.1 °C -8.2 °C 1021.6 hPa North 1.6 km/h 19.3 km/h 50% 0 mm FEW
08:20 1.1 °C -8.2 °C 1021.9 hPa NNW 8 km/h 27.4 km/h 50% 0 mm FEW
08:30 1.2 °C -8.4 °C 1021.9 hPa NNW 8 km/h 32.2 km/h 49% 0 mm FEW
08:40 1.3 °C -8.8 °C 1022.2 hPa NNE 9.7 km/h 35.4 km/h 47% 0 mm FEW
08:50 1.3 °C -8.5 °C 1021.9 hPa WNW 9.7 km/h 37 km/h 48% 0 mm FEW
08:59 1.5 °C -8.1 °C 1022.2 hPa NNW 9.7 km/h 32.2 km/h 49% 0 mm FEW
09:10 1.9 °C -7.2 °C 1022.2 hPa NNW 3.2 km/h 19.3 km/h 51% 0 mm FEW
09:20 1.9 °C -7.9 °C 1022.6 hPa NNW 8 km/h 22.5 km/h 48% 0 mm FEW
09:30 2.2 °C -7.2 °C 1022.6 hPa NNW 8 km/h 22.5 km/h 50% 0 mm FEW
09:40 1.9 °C -7.2 °C 1022.6 hPa NNE 8 km/h 24.1 km/h 51% 0 mm FEW
09:50 1.6 °C -6.4 °C 1022.9 hPa NW 9.7 km/h 22.5 km/h 55% 0 mm FEW
10:00 1.4 °C -5.7 °C 1022.9 hPa SSW 4.8 km/h 25.7 km/h 59% 0 mm FEW
10:10 1.2 °C -6.4 °C 1023.2 hPa NNW 9.7 km/h 24.1 km/h 57% 0 mm BKN
10:20 0.8 °C -8.9 °C 1023.6 hPa NNE 9.7 km/h 37 km/h 48% 0 mm BKN
10:30 0.9 °C -8.3 °C 1023.6 hPa NNE 4.8 km/h 27.4 km/h 50% 0 mm BKN
10:40 0.5 °C -9.8 °C 1023.6 hPa NNW 8 km/h 24.1 km/h 46% 0 mm BKN
10:50 0.3 °C -9.7 °C 1023.6 hPa NNW 8 km/h 22.5 km/h 47% 0 mm BKN
11:00 0.4 °C -9.6 °C 1023.2 hPa WSW 3.2 km/h 27.4 km/h 47% 0 mm BKN
11:10 0.6 °C -9.2 °C 1023.6 hPa ESE 3.2 km/h 19.3 km/h 48% 0 mm BKN
11:20 0.7 °C -9.3 °C 1023.6 hPa North 8 km/h 19.3 km/h 47% 0 mm BKN
11:30 0.9 °C -8.9 °C 1023.9 hPa NNE 8 km/h 24.1 km/h 48% 0 mm BKN
11:40 0.7 °C -8.8 °C 1023.9 hPa NNW 4.8 km/h 19.3 km/h 49% 0 mm BKN
11:50 0.5 °C -9.6 °C 1024.3 hPa NW 12.9 km/h 25.7 km/h 47% 0 mm BKN
12:00 0.2 °C -9.8 °C 1023.9 hPa East 4.8 km/h 33.8 km/h 47% 0 mm BKN
12:10 0.3 °C -10.2 °C 1023.9 hPa NNW 8 km/h 29 km/h 45% 0 mm SCT
12:20 0.7 °C -9.3 °C 1024.3 hPa SSW 9.7 km/h 20.9 km/h 47% 0 mm SCT
12:29 1.2 °C -9.4 °C 1024.3 hPa NNW 12.9 km/h 22.5 km/h 45% 0 mm SCT
12:40 0.6 °C -10.8 °C 1024.3 hPa NNW 11.3 km/h 27.4 km/h 42% 0 mm SCT
12:50 0.6 °C -11.2 °C 1024.3 hPa NE 11.3 km/h 20.9 km/h 41% 0 mm SCT
13:00 0.7 °C -11.4 °C 1024.6 hPa NW 8 km/h 20.9 km/h 40% 0 mm SCT
13:10 0.9 °C -11.6 °C 1024.6 hPa NNW 12.9 km/h 25.7 km/h 39% 0 mm FEW
13:20 1.1 °C -10.7 °C 1024.6 hPa NNW 8 km/h 20.9 km/h 41% 0 mm FEW
13:30 0.8 °C -10.9 °C 1024.6 hPa NW 8 km/h 22.5 km/h 41% 0 mm FEW
13:40 0.7 °C -11.1 °C 1024.6 hPa NNE 8 km/h 20.9 km/h 41% 0 mm FEW
13:50 0.7 °C -11.1 °C 1024.9 hPa NW 8 km/h 22.5 km/h 41% 0 mm FEW
13:59 1 °C -11.1 °C 1024.9 hPa NW 8 km/h 24.1 km/h 40% 0 mm FEW
14:09 0.9 °C -10.9 °C 1024.9 hPa NNW 4.8 km/h 24.1 km/h 41% 0 mm FEW
14:20 0.7 °C -10.7 °C 1025.3 hPa NW 4.8 km/h 20.9 km/h 42% 0 mm FEW
14:30 0.5 °C -10.7 °C 1025.3 hPa WNW 4.8 km/h 24.1 km/h 43% 0 mm FEW
14:40 0.6 °C -9.7 °C 1025.3 hPa North 4.8 km/h 19.3 km/h 46% 0 mm FEW
14:50 0.4 °C -11.6 °C 1025.6 hPa NNW 11.3 km/h 24.1 km/h 40% 0 mm FEW
15:00 0.2 °C -11.3 °C 1026 hPa North 3.2 km/h 25.7 km/h 42% 0 mm FEW
15:10 0 °C -11.1 °C 1026 hPa NNW 12.9 km/h 33.8 km/h 43% 0 mm FEW
15:20 -0.3 °C -12.3 °C 1026 hPa NW 9.7 km/h 37 km/h 40% 0 mm FEW
15:30 -0.2 °C -12.2 °C 1026.3 hPa NW 9.7 km/h 27.4 km/h 40% 0 mm FEW
15:40 -0.2 °C -11.8 °C 1026.6 hPa NNE 4.8 km/h 20.9 km/h 41% 0 mm FEW
15:50 -0.3 °C -12 °C 1026.6 hPa NNE 11.3 km/h 32.2 km/h 41% 0 mm FEW
15:59 -0.7 °C -12.3 °C 1027 hPa WNW 4.8 km/h 24.1 km/h 41% 0 mm FEW
16:10 -0.8 °C -12.1 °C 1027.3 hPa NNE 4.8 km/h 27.4 km/h 42% 0 mm FEW
16:20 -1.2 °C -13.4 °C 1027.7 hPa NNW 8 km/h 32.2 km/h 39% 0 mm FEW
16:29 -1.6 °C -13.1 °C 1028 hPa North 14.5 km/h 29 km/h 41% 0 mm FEW
16:40 -1.8 °C -13 °C 1028 hPa Calm   19.3 km/h 42% 0 mm FEW
16:49 -1.9 °C -12.8 °C 1028.3 hPa NNE 12.9 km/h 22.5 km/h 43% 0 mm FEW
17:00 -2.1 °C -13.6 °C 1028.7 hPa NNE 8 km/h 19.3 km/h 41% 0 mm FEW
17:10 -2.2 °C -13.1 °C 1029 hPa NNW 8 km/h 24.1 km/h 43% 0 mm CLR
17:20 -2.3 °C -13.2 °C 1029 hPa NNE 4.8 km/h 19.3 km/h 43% 0 mm CLR
17:29 -2.4 °C -12.7 °C 1029.3 hPa NNE 3.2 km/h 20.9 km/h 45% 0 mm CLR
17:40 -2.5 °C -12.8 °C 1029.7 hPa NNW 9.7 km/h 24.1 km/h 45% 0 mm CLR
17:50 -2.6 °C -12.4 °C 1030 hPa NNE 1.6 km/h 12.9 km/h 47% 0 mm CLR
18:00 -2.7 °C -12.2 °C 1030 hPa NE 4.8 km/h 19.3 km/h 48% 0 mm CLR
18:10 -2.8 °C -12.3 °C 1030.4 hPa NNE 3.2 km/h 16.1 km/h 48% 0 mm CLR
18:20 -2.9 °C -12.9 °C 1030.7 hPa North 8 km/h 25.7 km/h 46% 0 mm CLR
18:29 -3.1 °C -12.9 °C 1030.7 hPa NE 4.8 km/h 19.3 km/h 47% 0 mm CLR
18:40 -3.3 °C -13 °C 1031 hPa North 4.8 km/h 20.9 km/h 47% 0 mm CLR
18:50 -3.4 °C -12.8 °C 1031.4 hPa ENE 4.8 km/h 16.1 km/h 48% 0 mm CLR
18:59 -3.5 °C -12.7 °C 1031.4 hPa ENE 3.2 km/h 12.9 km/h 49% 0 mm CLR
19:10 -3.7 °C -13.1 °C 1031.7 hPa NE 3.2 km/h 16.1 km/h 48% 0 mm CLR
19:20 -3.7 °C -12.7 °C 1032.1 hPa NE 3.2 km/h 14.5 km/h 50% 0 mm CLR
19:30 -3.8 °C -13 °C 1032.1 hPa NE 4.8 km/h 20.9 km/h 49% 0 mm CLR
19:39 -3.9 °C -12.8 °C 1032.1 hPa NNW 8 km/h 19.3 km/h 50% 0 mm CLR
19:50 -4.1 °C -12.9 °C 1032.1 hPa NNW 8 km/h 19.3 km/h 50% 0 mm CLR
19:59 -4.1 °C -13.2 °C 1032.1 hPa NNW 4.8 km/h 24.1 km/h 49% 0 mm CLR
20:09 -4.1 °C -12.8 °C 1032.4 hPa North 8 km/h 19.3 km/h 51% 0 mm CLR
20:20 -4.2 °C -12.8 °C 1032.4 hPa NW 3.2 km/h 19.3 km/h 51% 0 mm CLR
20:30 -4.3 °C -12.4 °C 1032.4 hPa NW 1.6 km/h 9.7 km/h 53% 0 mm CLR
20:39 -4.4 °C -12.8 °C 1032.7 hPa NNE 3.2 km/h 14.5 km/h 52% 0 mm CLR
20:49 -4.5 °C -12.7 °C 1032.7 hPa NNE 1.6 km/h 12.9 km/h 53% 0 mm CLR
21:00 -4.6 °C -12.8 °C 1032.7 hPa North 3.2 km/h 19.3 km/h 53% 0 mm CLR
21:10 -4.6 °C -12.1 °C 1032.7 hPa Calm   9.7 km/h 56% 0 mm CLR
21:20 -4.6 °C -12.2 °C 1033.1 hPa NNE 1.6 km/h 16.1 km/h 55% 0 mm CLR
21:30 -4.7 °C -12.6 °C 1033.1 hPa North 1.6 km/h 12.9 km/h 54% 0 mm CLR
21:40 -4.7 °C -12.3 °C 1033.1 hPa NNW 3.2 km/h 12.9 km/h 55% 0 mm CLR
21:50 -4.8 °C -12.2 °C 1033.1 hPa NNE 3.2 km/h 9.7 km/h 56% 0 mm CLR
22:00 -4.8 °C -12.2 °C 1033.1 hPa NNW 1.6 km/h 8 km/h 56% 0 mm CLR
22:09 -4.8 °C -12 °C 1033.1 hPa Calm   16.1 km/h 57% 0 mm CLR
22:20 -4.7 °C -12.2 °C 1033.1 hPa North 1.6 km/h 20.9 km/h 56% 0 mm CLR
22:30 -4.7 °C -12.1 °C 1033.4 hPa North 8 km/h 20.9 km/h 56% 0 mm CLR
22:40 -4.7 °C -12.1 °C 1033.1 hPa North 1.6 km/h 12.9 km/h 56% 0 mm CLR
22:50 -4.7 °C -11.9 °C 1033.1 hPa NNW 1.6 km/h 12.9 km/h 57% 0 mm CLR
23:00 -4.7 °C -11.7 °C 1033.1 hPa NNE 3.2 km/h 14.5 km/h 58% 0 mm CLR
23:09 -4.7 °C -11.9 °C 1033.1 hPa NE 1.6 km/h 11.3 km/h 57% 0 mm CLR
23:20 -4.8 °C -11.8 °C 1033.1 hPa NNE 1.6 km/h 11.3 km/h 58% 0 mm CLR
23:30 -4.9 °C -11.7 °C 1033.1 hPa Calm   6.4 km/h 59% 0 mm CLR
23:40 -4.9 °C -11.4 °C 1033.1 hPa Calm   9.7 km/h 60% 0 mm CLR
23:50 -4.9 °C -11.4 °C 1033.4 hPa Calm   9.7 km/h 60% 0 mm CLR
TarryTown NY Weather
Compliments of Weather Underground - 1.75 mb